Time;durP1;ratioP1;P1;durP2;ratioP2;P2;SDS_P1;SDS_P2;PMS_P1;PMS_P2;Temp;Humidity;BMP_temperature;BMP_pressure;BME280_temperature;BME280_humidity;BME280_pressure;Samples;Min_cycle;Max_cycle;Signal;HPM_P1;HPM_P2
2022/06/06 00:02:20;;;;;;;5.05;3.22;;;;;;;21.75;39.93;100356.75;5396420;32;43177;-69
2022/06/06 00:05:22;;;;;;;5.75;3.30;;;;;;;21.58;40.33;100355.53;5367580;32;34099;-70
2022/06/06 00:08:25;;;;;;;6.47;3.40;;;;;;;21.82;39.71;100355.22;5364701;32;34265;-66
2022/06/06 00:11:27;;;;;;;5.20;3.45;;;;;;;21.16;41.01;100352.78;5387177;32;35807;-68
2022/06/06 00:14:29;;;;;;;5.45;3.05;;;;;;;20.95;41.48;100335.87;5371257;32;34120;-68
2022/06/06 00:17:31;;;;;;;6.72;3.17;;;;;;;21.87;39.56;100339.63;5388755;32;35721;-70
2022/06/06 00:20:35;;;;;;;4.30;2.97;;;;;;;21.85;39.43;100339.78;5369569;32;34119;-68
2022/06/06 00:23:38;;;;;;;5.00;3.28;;;;;;;21.92;39.14;100337.41;5394063;32;35390;-66
2022/06/06 00:26:42;;;;;;;4.68;3.30;;;;;;;21.88;39.12;100342.16;5342483;32;34177;-66
2022/06/06 00:29:44;;;;;;;4.35;2.90;;;;;;;22.13;38.70;100340.91;5389628;32;34103;-69
2022/06/06 00:36:07;;;;;;;5.15;3.05;;;;;;;22.42;38.29;100345.50;5385418;32;35352;-67
2022/06/06 00:39:12;;;;;;;6.15;3.30;;;;;;;21.91;39.30;100351.78;5367713;32;35480;-66
2022/06/06 00:42:23;;;;;;;5.05;2.97;;;;;;;21.26;40.70;100358.22;5381756;32;35343;-71
2022/06/06 00:45:34;;;;;;;4.78;3.28;;;;;;;21.78;39.64;100357.34;5399292;32;44676;-68
2022/06/06 00:48:39;;;;;;;6.82;3.50;;;;;;;22.01;39.51;100366.03;5389525;32;34149;-66
2022/06/06 00:51:41;;;;;;;5.80;3.35;;;;;;;21.44;40.96;100375.41;5370760;32;33893;-70
2022/06/06 00:54:45;;;;;;;4.78;3.00;;;;;;;21.92;39.99;100369.50;5402520;32;35309;-67
2022/06/06 00:57:58;;;;;;;5.25;3.30;;;;;;;21.81;40.28;100374.94;5369222;32;33950;-69
2022/06/06 01:01:01;;;;;;;;;;;;;;;22.44;39.06;100375.66;5387913;32;34219;-66
2022/06/06 01:04:04;;;;;;;6.50;3.62;;;;;;;21.65;40.76;100379.94;5357409;32;34329;-69
2022/06/06 01:07:09;;;;;;;6.05;3.60;;;;;;;21.69;40.77;100387.53;5372658;32;34033;-67
2022/06/06 01:10:14;;;;;;;6.40;3.30;;;;;;;21.24;41.89;100394.91;5400752;32;35479;-67
2022/06/06 01:13:17;;;;;;;6.10;3.40;;;;;;;21.21;42.20;100408.53;5368442;32;35290;-68
2022/06/06 01:16:40;;;;;;;5.00;3.45;;;;;;;21.83;40.74;100423.78;5370128;32;46535;-68
2022/06/06 01:19:45;;;;;;;5.75;3.33;;;;;;;22.00;40.55;100427.72;5378303;32;36355;-67
2022/06/06 01:23:15;;;;;;;5.25;3.35;;;;;;;22.00;40.67;100425.88;5384318;32;35327;-66
2022/06/06 01:26:59;;;;;;;6.37;3.05;;;;;;;21.80;40.98;100416.03;5380724;32;35481;-68
2022/06/06 01:30:06;;;;;;;6.20;3.65;;;;;;;22.14;40.41;100422.03;5309900;32;35362;-66
2022/06/06 01:33:10;;;;;;;4.65;3.25;;;;;;;22.20;40.40;100444.75;5375377;32;32246;-68
2022/06/06 01:36:13;;;;;;;4.28;3.17;;;;;;;22.66;39.88;100455.78;5374599;32;35284;-68
2022/06/06 01:39:15;;;;;;;7.10;3.60;;;;;;;21.93;41.21;100448.81;5349263;32;34144;-69
2022/06/06 01:42:38;;;;;;;4.65;3.35;;;;;;;21.25;42.92;100440.25;5398740;32;36690;-69
2022/06/06 01:46:12;;;;;;;5.47;3.35;;;;;;;21.47;42.58;100459.88;5368726;32;36820;-68
2022/06/06 01:49:15;;;;;;;6.05;3.67;;;;;;;21.45;42.48;100462.69;5364539;32;36223;-70
2022/06/06 01:52:18;;;;;;;5.75;3.80;;;;;;;21.55;42.02;100466.25;5372664;32;34303;-69
2022/06/06 01:55:20;;;;;;;4.97;3.78;;;;;;;21.38;42.83;100466.81;5369111;32;45654;-67
2022/06/06 01:58:26;;;;;;;5.32;3.62;;;;;;;21.54;42.32;100477.94;5400102;32;34322;-66
2022/06/06 02:01:28;;;;;;;4.37;3.20;;;;;;;21.03;43.94;100477.72;5370331;32;35130;-68
2022/06/06 02:04:30;;;;;;;6.82;3.35;;;;;;;21.83;42.09;100483.53;5371918;32;34979;-69
2022/06/06 02:07:34;;;;;;;5.53;3.33;;;;;;;21.35;42.76;100483.12;5368962;32;35051;-68
2022/06/06 02:10:37;;;;;;;5.15;3.42;;;;;;;21.75;42.17;100485.97;5374462;32;35998;-68
2022/06/06 02:13:39;;;;;;;;;;;;;;;21.58;42.49;100500.78;5395086;32;35463;-68
2022/06/06 02:16:42;;;;;;;6.23;3.50;;;;;;;22.00;41.55;100506.16;5361651;32;35366;-68
2022/06/06 02:19:44;;;;;;;5.45;3.90;;;;;;;21.13;43.53;100515.22;5372659;32;34057;-68
2022/06/06 02:22:46;;;;;;;6.53;3.50;;;;;;;21.80;41.99;100513.19;5375183;32;35789;-67
2022/06/06 02:25:49;;;;;;;4.37;3.08;;;;;;;22.35;40.86;100502.34;5378300;32;34215;-68
2022/06/06 02:28:51;;;;;;;5.47;3.58;;;;;;;22.26;40.79;100495.09;5368920;32;44577;-68
2022/06/06 02:31:53;;;;;;;5.40;3.58;;;;;;;21.39;43.09;100487.25;5361449;32;35378;-67
2022/06/06 02:34:55;;;;;;;6.22;3.50;;;;;;;21.38;43.18;100482.84;5382040;32;34692;-70
2022/06/06 02:37:58;;;;;;;4.68;3.47;;;;;;;21.79;42.15;100475.88;5372411;32;35115;-66
2022/06/06 02:41:07;;;;;;;5.18;3.60;;;;;;;22.52;40.83;100474.91;5372964;32;37670;-68
2022/06/06 02:44:10;;;;;;;4.60;3.35;;;;;;;22.96;39.91;100478.22;5381798;32;34701;-68
2022/06/06 02:47:12;;;;;;;6.57;3.53;;;;;;;22.92;40.20;100479.47;5383317;32;34395;-66
2022/06/06 02:50:18;;;;;;;6.50;3.50;;;;;;;21.77;42.43;100485.88;5385277;32;35377;-68
2022/06/06 02:53:20;;;;;;;7.03;3.70;;;;;;;21.40;43.55;100491.63;5381320;32;44299;-68
2022/06/06 02:56:22;;;;;;;;;;;;;;;21.76;43.34;100492.19;5400428;32;34232;-68
2022/06/06 02:59:26;;;;;;;13.30;5.72;;;;;;;22.44;41.40;100490.81;5384331;32;34417;-65
2022/06/06 03:02:29;;;;;;;6.10;3.90;;;;;;;22.73;40.72;100509.69;5381095;32;34003;-68
2022/06/06 03:05:51;;;;;;;11.93;4.68;;;;;;;22.22;41.62;100507.03;5378075;32;35188;-69
2022/06/06 03:08:59;;;;;;;8.45;4.43;;;;;;;22.36;41.47;100501.34;5390067;32;43243;-69
2022/06/06 03:12:14;;;;;;;6.97;3.30;;;;;;;22.39;41.37;100504.59;5397939;32;34240;-66
2022/06/06 03:15:27;;;;;;;5.50;3.55;;;;;;;22.47;41.17;100511.13;5357855;32;34118;-66
2022/06/06 03:22:01;;;;;;;6.35;3.80;;;;;;;22.14;41.68;100496.97;5371830;32;34151;-67
2022/06/06 03:25:08;;;;;;;6.32;3.80;;;;;;;21.88;42.53;100493.81;5365676;32;32200;-64
2022/06/06 03:28:24;;;;;;;6.87;4.03;;;;;;;21.59;43.23;100481.09;5400421;32;34296;-70
2022/06/06 03:31:35;;;;;;;6.00;3.60;;;;;;;21.43;43.24;100463.75;5382323;32;46725;-68
2022/06/06 03:35:02;;;;;;;6.45;4.15;;;;;;;21.85;42.77;100480.72;5377199;32;34816;-68
2022/06/06 03:38:11;;;;;;;8.77;4.07;;;;;;;22.01;43.10;100467.72;5375804;32;35357;-68
2022/06/06 03:41:21;;;;;;;5.65;3.55;;;;;;;22.25;42.80;100461.28;5360026;32;35337;-68
2022/06/06 03:44:56;;;;;;;8.23;4.10;;;;;;;21.81;43.02;100463.22;5387426;32;44584;-68
2022/06/06 03:48:26;;;;;;;6.87;4.00;;;;;;;22.24;42.25;100465.78;5348124;32;44408;-68
2022/06/06 03:51:51;;;;;;;8.82;3.90;;;;;;;21.90;42.87;100457.94;5387084;32;44217;-69
2022/06/06 03:55:02;;;;;;;11.00;4.18;;;;;;;21.32;44.23;100451.31;5401824;32;47010;-70
2022/06/06 03:58:04;;;;;;;5.80;3.90;;;;;;;21.71;43.89;100447.13;5383987;32;35131;-69
2022/06/06 04:01:08;;;;;;;;;;;;;;;21.28;45.46;100447.16;5402356;32;35002;-66
2022/06/06 04:04:11;;;;;;;7.85;4.37;;;;;;;20.98;45.90;100445.16;5372044;32;34244;-70
2022/06/06 04:07:13;;;;;;;6.43;4.40;;;;;;;20.76;47.20;100438.06;5374938;32;35308;-66
2022/06/06 04:10:16;;;;;;;6.32;4.03;;;;;;;21.55;45.38;100436.84;5396204;32;35709;-68
2022/06/06 04:13:31;;;;;;;8.57;4.43;;;;;;;20.71;47.15;100442.91;5383657;32;34311;-66
2022/06/06 04:17:00;;;;;;;6.45;4.10;;;;;;;20.74;47.38;100440.00;5394437;32;35440;-66
2022/06/06 04:20:10;;;;;;;7.32;4.28;;;;;;;20.76;46.90;100438.06;5365407;32;34495;-69
2022/06/06 04:23:30;;;;;;;6.53;4.30;;;;;;;20.46;47.86;100442.19;5366248;32;35785;-66
2022/06/06 04:26:42;;;;;;;6.95;4.07;;;;;;;20.18;48.57;100438.16;5374557;32;34853;-66
2022/06/06 04:29:58;;;;;;;10.70;4.78;;;;;;;19.99;49.41;100451.25;5369942;32;35451;-69
2022/06/06 04:33:19;;;;;;;7.18;4.47;;;;;;;20.64;48.11;100449.72;5366583;32;35150;-70
2022/06/06 04:36:32;;;;;;;6.18;4.10;;;;;;;20.50;48.45;100449.00;5380467;32;44348;-65
2022/06/06 04:39:46;;;;;;;10.32;4.37;;;;;;;20.98;47.10;100448.69;5345465;32;34011;-68
2022/06/06 04:42:56;;;;;;;8.77;4.60;;;;;;;21.24;46.52;100459.91;5368010;32;34009;-65
2022/06/06 04:46:15;;;;;;;6.32;3.75;;;;;;;21.61;45.03;100457.72;5364723;32;46905;-68
2022/06/06 04:49:18;;;;;;;6.73;3.93;;;;;;;21.37;45.40;100467.78;5383493;32;36748;-68
2022/06/06 04:52:20;;;;;;;5.72;3.97;;;;;;;21.44;44.83;100476.16;5372398;32;44695;-68
2022/06/06 04:55:23;;;;;;;;;;;;;;;20.87;46.50;100478.13;5369825;32;35421;-68
2022/06/06 04:58:28;;;;;;;6.75;3.80;;;;;;;21.08;46.13;100473.69;5400805;32;35724;-66
2022/06/06 05:01:32;;;;;;;8.67;4.60;;;;;;;22.13;43.71;100473.88;5385355;32;35287;-68
2022/06/06 05:04:34;;;;;;;7.60;4.33;;;;;;;21.00;46.48;100481.50;5395645;32;34021;-68
2022/06/06 05:08:01;;;;;;;6.55;4.00;;;;;;;21.34;46.15;100500.12;5365327;32;33848;-70
2022/06/06 05:11:40;;;;;;;6.25;4.00;;;;;;;22.06;44.52;100504.78;5383172;32;34079;-70
2022/06/06 05:15:04;;;;;;;7.10;4.40;;;;;;;21.21;46.09;100508.28;5358300;32;35791;-67
2022/06/06 05:18:30;;;;;;;7.05;4.68;;;;;;;21.80;45.10;100498.97;5379204;32;34356;-67
2022/06/06 05:21:47;;;;;;;7.47;4.25;;;;;;;21.62;45.18;100496.84;5378726;32;34775;-67
2022/06/06 05:25:08;;;;;;;7.18;4.37;;;;;;;21.35;45.85;100504.50;5388665;32;44738;-67
2022/06/06 05:28:29;;;;;;;7.05;4.32;;;;;;;21.77;45.09;100507.28;5363881;32;35802;-67
2022/06/06 05:31:52;;;;;;;7.30;4.28;;;;;;;22.56;43.29;100503.16;5398235;32;34093;-66
2022/06/06 05:35:19;;;;;;;6.25;4.00;;;;;;;21.94;44.63;100501.34;5379471;32;44613;-69
2022/06/06 05:38:42;;;;;;;8.15;4.10;;;;;;;22.55;43.44;100506.81;5369308;32;46789;-67
2022/06/06 05:41:53;;;;;;;6.82;4.32;;;;;;;23.32;41.42;100506.22;5378823;32;35380;-69
2022/06/06 05:44:59;;;;;;;7.72;4.30;;;;;;;22.67;43.12;100520.97;5384643;32;44200;-68
2022/06/06 05:48:33;;;;;;;8.15;4.60;;;;;;;22.66;43.22;100520.09;5371539;32;32615;-69
2022/06/06 05:51:45;;;;;;;6.72;3.90;;;;;;;24.12;40.02;100510.47;5339261;32;35216;-69
2022/06/06 05:55:19;;;;;;;6.18;3.97;;;;;;;23.44;41.64;100509.59;5366287;32;34248;-70
2022/06/06 05:58:39;;;;;;;5.30;3.70;;;;;;;23.63;41.09;100509.66;5368615;32;34147;-68
2022/06/06 06:01:57;;;;;;;6.32;4.25;;;;;;;23.36;41.32;100513.00;5397576;32;35598;-69
2022/06/06 06:05:21;;;;;;;8.40;4.30;;;;;;;22.47;43.65;100524.50;5372796;32;36442;-70
2022/06/06 06:08:28;;;;;;;7.32;4.10;;;;;;;22.91;42.72;100520.66;5396868;32;44610;-69
2022/06/06 06:11:49;;;;;;;5.70;3.97;;;;;;;22.28;44.77;100522.56;5382928;32;34011;-68
2022/06/06 06:15:17;;;;;;;5.57;4.03;;;;;;;22.22;45.32;100531.13;5368579;32;44477;-70
2022/06/06 06:18:29;;;;;;;8.32;4.60;;;;;;;21.92;46.56;100524.69;5369096;32;46614;-69
2022/06/06 06:21:37;;;;;;;7.60;4.20;;;;;;;22.06;46.57;100520.84;5358789;32;33863;-70
2022/06/06 06:24:41;;;;;;;6.43;4.35;;;;;;;22.26;46.20;100521.84;5394862;32;33946;-69
2022/06/06 06:27:44;;;;;;;16.83;10.77;;;;;;;22.27;46.67;100524.41;5383591;32;34138;-70
2022/06/06 06:31:02;;;;;;;8.77;4.20;;;;;;;22.12;47.02;100528.41;5382663;32;35638;-69
2022/06/06 06:34:11;;;;;;;7.30;4.12;;;;;;;22.96;45.26;100526.44;5400528;32;34965;-67
2022/06/06 06:37:47;;;;;;;7.53;4.50;;;;;;;23.21;44.86;100525.97;5385510;32;34457;-69
2022/06/06 06:41:43;;;;;;;10.38;4.25;;;;;;;23.09;45.24;100521.69;5335547;32;34821;-73
2022/06/06 06:44:52;;;;;;;8.73;4.62;;;;;;;22.75;45.94;100529.16;5325940;32;35628;-68
2022/06/06 06:47:59;;;;;;;7.78;4.25;;;;;;;22.83;45.85;100531.16;5365715;32;45553;-67
2022/06/06 06:51:26;;;;;;;7.20;4.00;;;;;;;23.67;43.09;100521.81;5380759;32;33960;-69
2022/06/06 06:54:49;;;;;;;6.70;4.40;;;;;;;23.30;44.18;100528.78;5377014;32;43603;-69
2022/06/06 06:58:09;;;;;;;7.43;4.20;;;;;;;21.89;47.62;100538.31;5365396;32;45004;-67
2022/06/06 07:01:19;;;;;;;6.57;4.30;;;;;;;22.41;46.87;100531.22;5383102;32;34222;-69
2022/06/06 07:11:41;;;;;;;6.62;4.45;;;;;;;23.55;44.35;100528.25;5385730;32;44327;-68
2022/06/06 07:14:51;;;;;;;9.38;4.40;;;;;;;24.15;42.52;100526.31;5372296;32;36357;-68
2022/06/06 07:18:00;;;;;;;8.20;4.53;;;;;;;23.76;43.45;100520.09;5363205;32;46961;-70
2022/06/06 07:21:05;;;;;;;8.07;4.28;;;;;;;24.02;41.68;100520.38;5359242;32;34146;-68
2022/06/06 07:24:10;;;;;;;6.68;3.92;;;;;;;23.85;40.89;100523.78;5361209;32;35493;-69
2022/06/06 07:27:12;;;;;;;5.70;3.60;;;;;;;23.76;41.58;100537.06;5380560;32;35282;-66
2022/06/06 07:30:14;;;;;;;;;;;;;;;24.03;41.27;100532.81;5367504;32;34402;-67
2022/06/06 07:33:35;;;;;;;12.00;4.00;;;;;;;25.12;39.80;100529.53;5385526;32;35533;-69
2022/06/06 07:36:43;;;;;;;5.82;3.67;;;;;;;24.42;40.63;100522.03;5386590;32;34255;-66
2022/06/06 07:40:28;;;;;;;8.25;3.85;;;;;;;25.16;39.14;100532.75;5365448;32;36547;-67
2022/06/06 07:43:51;;;;;;;6.53;4.00;;;;;;;25.49;38.06;100530.44;5377275;32;35415;-69
2022/06/06 07:47:09;;;;;;;5.87;4.10;;;;;;;25.30;38.70;100536.78;5368891;32;46970;-70
2022/06/06 07:51:00;;;;;;;8.00;4.30;;;;;;;25.14;38.95;100545.53;5370205;32;34630;-69
2022/06/06 07:54:42;;;;;;;6.03;4.05;;;;;;;24.94;38.90;100554.66;5343945;32;35126;-67
2022/06/06 07:58:05;;;;;;;6.95;4.20;;;;;;;24.37;40.16;100543.94;5384897;32;34694;-66
2022/06/06 08:01:19;;;;;;;7.60;4.53;;;;;;;24.28;40.46;100542.97;5383679;32;34439;-69
2022/06/06 08:05:01;;;;;;;7.62;4.40;;;;;;;24.17;41.53;100550.31;5381351;32;43937;-68
2022/06/06 08:08:38;;;;;;;10.10;4.80;;;;;;;24.14;41.27;100550.59;5339563;32;34097;-69
2022/06/06 08:12:25;;;;;;;8.40;4.40;;;;;;;23.70;42.28;100553.75;5384309;32;34359;-67
2022/06/06 08:15:53;;;;;;;8.85;4.50;;;;;;;23.81;40.85;100559.94;5401049;32;35301;-70
2022/06/06 08:19:15;;;;;;;7.12;4.30;;;;;;;24.40;40.00;100550.88;5368192;32;44970;-67
2022/06/06 08:22:18;;;;;;;8.20;4.22;;;;;;;25.77;37.14;100548.25;5374937;32;35975;-69
2022/06/06 08:25:21;;;;;;;6.25;4.32;;;;;;;25.47;36.48;100537.81;5383665;32;46333;-67
2022/06/06 08:28:24;;;;;;;8.13;4.00;;;;;;;25.43;36.92;100539.09;5382641;32;33999;-68
2022/06/06 08:31:26;;;;;;;7.50;4.05;;;;;;;26.34;35.21;100542.44;5385165;32;34102;-68
2022/06/06 08:34:28;;;;;;;;;;;;;;;26.61;34.22;100546.88;5372597;32;34079;-70
2022/06/06 08:37:37;;;;;;;;;;;;;;;26.60;34.46;100545.16;5388939;32;35480;-69
2022/06/06 08:41:06;;;;;;;6.05;4.07;;;;;;;27.33;33.31;100537.44;5381581;32;34578;-68
2022/06/06 08:44:08;;;;;;;9.88;4.18;;;;;;;27.97;32.41;100543.97;5354524;32;35412;-67
2022/06/06 08:47:18;;;;;;;8.35;4.07;;;;;;;28.44;31.79;100543.28;5394840;32;34060;-71
2022/06/06 08:50:45;;;;;;;5.03;3.67;;;;;;;27.96;32.74;100531.47;5383764;32;45042;-67
2022/06/06 08:53:50;;;;;;;6.25;3.83;;;;;;;27.73;32.87;100531.28;5382963;32;35897;-69
2022/06/06 08:57:26;;;;;;;6.90;4.00;;;;;;;28.82;31.11;100528.13;5384580;32;44460;-68
2022/06/06 09:00:43;;;;;;;7.40;4.05;;;;;;;29.23;30.35;100532.53;5352104;32;45141;-70
2022/06/06 09:04:18;;;;;;;5.80;3.70;;;;;;;28.72;31.18;100532.03;5383790;32;37191;-68
2022/06/06 09:07:40;;;;;;;6.53;3.78;;;;;;;30.42;27.78;100523.88;5379142;32;34254;-69
2022/06/06 09:10:52;;;;;;;8.45;3.92;;;;;;;30.90;27.80;100518.91;5365613;32;35228;-70
2022/06/06 09:14:16;;;;;;;6.78;3.83;;;;;;;30.08;28.89;100521.63;5381673;32;44294;-69
2022/06/06 09:17:47;;;;;;;6.10;3.75;;;;;;;29.90;28.92;100516.53;5377748;32;37487;-69
2022/06/06 09:21:03;;;;;;;5.15;3.50;;;;;;;30.79;27.75;100508.56;5363794;32;34890;-68
2022/06/06 09:24:30;;;;;;;5.05;3.40;;;;;;;32.40;25.21;100502.72;5378627;32;35212;-71
2022/06/06 09:28:06;;;;;;;6.68;3.55;;;;;;;32.38;25.29;100496.62;5381992;32;35258;-67
2022/06/06 09:31:44;;;;;;;6.72;3.47;;;;;;;31.15;26.72;100495.84;5383256;32;34165;-68
2022/06/06 09:35:10;;;;;;;5.25;3.80;;;;;;;30.88;26.91;100494.69;5324109;32;35496;-68
2022/06/06 09:38:12;;;;;;;5.30;3.60;;;;;;;31.44;26.09;100488.69;5359082;32;34266;-69
2022/06/06 09:41:33;;;;;;;6.32;3.90;;;;;;;31.57;25.82;100475.25;5359684;32;32551;-70
2022/06/06 09:44:52;;;;;;;8.23;3.55;;;;;;;31.25;26.73;100491.00;5387156;32;35165;-68
2022/06/06 09:48:22;;;;;;;7.72;4.00;;;;;;;30.47;27.62;100484.31;5381840;32;44381;-69
2022/06/06 09:51:33;;;;;;;4.70;3.17;;;;;;;33.34;23.64;100471.09;5395796;32;44850;-67
2022/06/06 10:02:19;;;;;;;3.90;3.00;;;;;;;33.53;22.09;100461.31;5395844;32;37808;-72
2022/06/06 10:05:48;;;;;;;5.60;4.03;;;;;;;32.21;22.84;100460.72;5376385;32;44257;-71
2022/06/06 10:09:30;;;;;;;5.00;2.80;;;;;;;34.66;19.76;100458.50;5350151;32;44413;-68
2022/06/06 10:13:30;;;;;;;5.18;2.90;;;;;;;33.18;21.81;100459.75;5393688;32;35369;-67
2022/06/06 10:17:29;;;;;;;3.50;2.83;;;;;;;35.24;19.72;100450.25;5303193;33;35030;-68
2022/06/06 10:20:56;;;;;;;5.10;2.97;;;;;;;35.39;20.09;100444.47;5267447;32;34263;-71
2022/06/06 10:24:04;;;;;;;5.62;3.03;;;;;;;33.55;22.36;100447.47;5315284;32;44566;-72
2022/06/06 10:27:12;;;;;;;4.43;2.87;;;;;;;32.81;22.85;100448.31;5397363;32;33944;-70
2022/06/06 10:30:19;;;;;;;4.00;2.97;;;;;;;31.86;24.00;100446.25;5383044;32;34246;-71
2022/06/06 10:33:52;;;;;;;4.72;2.83;;;;;;;31.67;24.02;100442.28;5384223;32;44423;-70
2022/06/06 10:37:03;;;;;;;8.13;3.25;;;;;;;33.61;21.48;100443.91;5385931;32;44371;-71
2022/06/06 10:40:37;;;;;;;3.92;3.20;;;;;;;33.02;22.60;100450.06;5361165;32;36439;-68
2022/06/06 10:44:24;;;;;;;5.35;2.95;;;;;;;32.36;23.03;100441.59;5355583;32;34347;-68
2022/06/06 10:47:52;;;;;;;3.55;3.00;;;;;;;33.46;21.21;100440.56;5359508;32;35926;-71
2022/06/06 10:55:15;;;;;;;5.03;3.12;;;;;;;33.99;20.68;100435.12;5381473;32;34985;-70
2022/06/06 10:58:20;;;;;;;3.58;2.90;;;;;;;33.54;20.83;100430.28;5373862;32;35457;-69
2022/06/06 11:01:48;;;;;;;5.15;3.90;;;;;;;35.75;18.77;100427.41;5363808;32;44318;-69
2022/06/06 11:05:29;;;;;;;4.15;2.90;;;;;;;31.43;23.59;100427.22;5372536;32;46204;-67
2022/06/06 11:08:55;;;;;;;3.72;2.75;;;;;;;33.82;20.54;100416.47;5364919;32;35313;-71
2022/06/06 11:12:25;;;;;;;3.62;2.80;;;;;;;35.31;19.14;100415.53;5376638;32;44240;-67
2022/06/06 11:15:34;;;;;;;2.95;2.65;;;;;;;35.10;19.35;100403.06;5398759;32;46971;-70
2022/06/06 11:18:56;;;;;;;5.93;3.17;;;;;;;32.95;20.98;100408.38;5364937;32;34930;-69
2022/06/06 11:22:10;;;;;;;4.28;3.05;;;;;;;31.15;23.03;100411.69;5375075;32;44554;-66
2022/06/06 11:25:17;;;;;;;4.85;2.72;;;;;;;32.74;21.67;100410.19;5398496;32;35281;-66
2022/06/06 11:28:44;;;;;;;4.90;3.30;;;;;;;33.64;20.64;100405.34;5351588;32;44977;-70
2022/06/06 11:32:24;;;;;;;3.28;2.80;;;;;;;34.74;19.57;100407.22;5399009;32;35482;-69
2022/06/06 11:35:46;;;;;;;4.07;2.45;;;;;;;35.01;19.62;100416.13;5394281;32;34094;-67
2022/06/06 11:39:26;;;;;;;4.37;2.60;;;;;;;34.14;19.76;100405.75;5344344;32;35272;-70
2022/06/06 11:42:55;;;;;;;6.37;2.78;;;;;;;33.89;19.46;100405.56;5398834;32;34005;-70
2022/06/06 11:46:12;;;;;;;4.03;2.45;;;;;;;35.91;17.41;100395.94;5393495;32;46649;-68
2022/06/06 11:49:34;;;;;;;3.28;2.87;;;;;;;37.01;16.71;100394.00;5366203;32;35351;-68
2022/06/06 11:53:01;;;;;;;2.95;2.45;;;;;;;37.17;16.27;100391.66;5366881;32;34899;-71
2022/06/06 11:56:09;;;;;;;5.35;2.45;;;;;;;34.70;18.37;100395.06;5365145;32;34142;-70
2022/06/06 11:59:53;;;;;;;7.72;2.80;;;;;;;36.80;16.27;100384.38;5354298;32;33996;-70
2022/06/06 12:03:01;;;;;;;3.53;2.40;;;;;;;33.76;19.45;100390.03;5374672;32;34068;-69
2022/06/06 12:06:18;;;;;;;4.70;2.75;;;;;;;34.60;18.26;100381.06;5364104;32;33934;-71
2022/06/06 12:09:59;;;;;;;4.50;2.92;;;;;;;32.64;20.48;100379.78;5364531;32;45309;-70
2022/06/06 12:13:04;;;;;;;6.28;3.55;;;;;;;32.23;21.37;100377.06;5323955;32;34099;-68
2022/06/06 12:16:24;;;;;;;5.18;3.40;;;;;;;29.89;23.72;100376.69;5355560;32;32881;-71
2022/06/06 12:19:29;;;;;;;4.22;2.90;;;;;;;30.78;22.61;100372.03;5382778;32;44499;-69
2022/06/06 12:22:53;;;;;;;4.12;3.28;;;;;;;29.98;22.78;100372.00;5375387;32;35545;-71
2022/06/06 12:25:55;;;;;;;3.42;2.80;;;;;;;29.94;23.36;100374.22;5381009;32;44558;-71
2022/06/06 12:29:14;;;;;;;5.43;2.70;;;;;;;31.15;22.07;100356.56;5400049;32;34122;-70
2022/06/06 12:32:54;;;;;;;3.67;2.78;;;;;;;31.07;22.33;100354.00;5382283;32;34242;-69
2022/06/06 12:36:09;;;;;;;5.00;3.17;;;;;;;30.56;23.01;100352.16;5391452;32;34591;-69
2022/06/06 12:39:34;;;;;;;4.07;2.83;;;;;;;29.83;24.21;100356.59;5347182;32;34698;-69
2022/06/06 12:42:46;;;;;;;4.30;2.72;;;;;;;29.96;23.28;100358.66;5333463;32;34003;-70
2022/06/06 12:46:18;;;;;;;4.50;3.00;;;;;;;30.54;22.70;100353.41;5381921;32;34061;-70
2022/06/06 12:49:39;;;;;;;6.03;2.95;;;;;;;30.71;22.70;100350.28;5366675;32;34090;-70
2022/06/06 12:53:00;;;;;;;5.10;2.90;;;;;;;30.29;23.58;100344.75;5360381;32;35263;-69
2022/06/06 12:56:19;;;;;;;4.45;2.80;;;;;;;30.29;22.81;100347.44;5399880;32;34154;-69
2022/06/06 12:59:24;;;;;;;4.90;3.00;;;;;;;30.30;21.64;100335.56;5366268;32;44569;-69
2022/06/06 13:02:44;;;;;;;5.07;2.55;;;;;;;30.08;22.39;100342.78;5367795;32;35051;-68
2022/06/06 13:06:08;;;;;;;3.65;3.00;;;;;;;31.00;22.12;100332.22;5383288;32;34661;-68
2022/06/06 13:09:22;;;;;;;4.22;2.90;;;;;;;29.71;23.06;100338.28;5364976;32;35282;-70
2022/06/06 13:12:24;;;;;;;5.68;2.70;;;;;;;29.54;23.28;100337.59;5380121;32;47321;-67
2022/06/06 13:15:35;;;;;;;;;;;;;;;29.26;23.42;100319.22;5365086;32;34154;-71
2022/06/06 13:19:28;;;;;;;3.55;2.65;;;;;;;29.53;22.67;100325.06;5364801;32;35488;-69
2022/06/06 13:22:44;;;;;;;2.85;2.50;;;;;;;29.08;22.55;100324.94;5364438;32;34156;-67
2022/06/06 13:26:24;;;;;;;3.90;2.78;;;;;;;29.34;22.81;100321.00;5358778;32;34527;-70
2022/06/06 13:29:26;;;;;;;3.62;2.90;;;;;;;29.77;22.45;100313.16;5367048;32;34239;-68
2022/06/06 13:32:44;;;;;;;4.25;2.75;;;;;;;29.62;22.85;100313.97;5380326;32;35204;-69
2022/06/06 13:36:04;;;;;;;4.45;2.70;;;;;;;30.46;22.05;100310.94;5365393;32;34011;-70
2022/06/06 13:39:21;;;;;;;7.20;2.97;;;;;;;29.24;23.33;100318.56;5378114;32;34023;-67
2022/06/06 13:42:35;;;;;;;3.80;3.00;;;;;;;29.11;24.00;100319.16;5385526;32;45189;-71
2022/06/06 13:46:02;;;;;;;5.40;2.95;;;;;;;29.37;24.34;100315.22;5383659;32;34092;-66
2022/06/06 13:49:22;;;;;;;6.53;3.10;;;;;;;29.51;24.73;100314.44;5400262;32;35821;-70
2022/06/06 13:52:42;;;;;;;4.18;2.97;;;;;;;30.17;24.14;100309.97;5382031;32;43286;-69
2022/06/06 13:55:44;;;;;;;5.82;3.47;;;;;;;30.52;24.05;100302.03;5384281;32;34174;-70
2022/06/06 13:59:21;;;;;;;5.22;3.15;;;;;;;29.03;25.64;100316.50;5386665;32;35653;-70
2022/06/06 14:02:37;;;;;;;5.95;3.10;;;;;;;28.99;25.95;100307.09;5377021;32;34151;-70
2022/06/06 14:05:45;;;;;;;4.82;2.85;;;;;;;29.36;25.21;100302.69;5369314;32;35263;-71
2022/06/06 14:08:53;;;;;;;6.47;3.47;;;;;;;30.38;24.15;100292.06;5367901;32;34818;-68
2022/06/06 14:12:07;;;;;;;5.75;3.00;;;;;;;29.77;25.02;100294.19;5375458;32;44677;-70
2022/06/06 14:15:12;;;;;;;6.32;3.45;;;;;;;29.45;25.73;100301.59;5399884;32;35407;-70
2022/06/06 14:18:30;;;;;;;7.57;3.47;;;;;;;29.79;25.87;100300.25;5367600;32;37064;-68
2022/06/06 14:21:35;;;;;;;4.65;3.12;;;;;;;30.50;24.76;100293.25;5383919;32;35266;-71
2022/06/06 14:24:52;;;;;;;3.97;3.42;;;;;;;29.38;25.92;100292.53;5382622;32;35226;-67
2022/06/06 14:28:17;;;;;;;6.57;3.08;;;;;;;30.05;25.54;100300.63;5368513;32;44237;-67
2022/06/06 14:31:21;;;;;;;5.28;3.42;;;;;;;29.62;25.81;100300.41;5397568;32;35918;-68
2022/06/06 14:34:43;;;;;;;6.70;3.58;;;;;;;29.07;26.85;100304.31;5382189;32;44550;-67
2022/06/06 14:37:46;;;;;;;6.32;3.60;;;;;;;28.53;27.12;100296.22;5386154;32;35336;-70
2022/06/06 14:40:56;;;;;;;4.10;3.10;;;;;;;29.79;25.85;100295.69;5373872;32;35241;-69
2022/06/06 14:44:01;;;;;;;5.40;3.40;;;;;;;29.77;26.07;100292.31;5371032;32;44711;-71
2022/06/06 14:47:08;;;;;;;4.95;3.10;;;;;;;29.31;26.42;100295.16;5384006;32;32906;-67
2022/06/06 14:53:56;;;;;;;4.95;3.67;;;;;;;29.47;26.36;100291.41;5393402;32;34233;-67
2022/06/06 14:57:05;;;;;;;4.80;3.30;;;;;;;28.99;26.81;100298.13;5374769;32;34163;-70
2022/06/06 15:00:13;;;;;;;7.03;3.60;;;;;;;29.09;26.95;100296.84;5372204;32;35437;-69
2022/06/06 15:03:19;;;;;;;5.60;3.22;;;;;;;29.65;25.59;100288.41;5391284;32;34146;-66
2022/06/06 15:06:25;;;;;;;4.32;3.30;;;;;;;29.35;26.67;100282.91;5380728;32;44430;-71
2022/06/06 15:09:46;;;;;;;6.57;3.55;;;;;;;29.70;26.32;100266.19;5398903;32;34177;-68
2022/06/06 15:12:48;;;;;;;6.03;3.85;;;;;;;29.48;26.98;100284.97;5381907;32;34249;-69
2022/06/06 15:15:52;;;;;;;4.90;3.28;;;;;;;28.83;27.29;100277.41;5369521;32;47258;-70
2022/06/06 15:18:56;;;;;;;5.07;3.58;;;;;;;29.26;27.04;100278.59;5369571;32;34774;-69
2022/06/06 15:22:00;;;;;;;6.85;3.53;;;;;;;28.42;28.22;100275.00;5372350;32;35398;-69
2022/06/06 15:25:04;;;;;;;8.55;3.85;;;;;;;28.30;28.52;100274.53;5384536;32;34825;-70
2022/06/06 15:28:23;;;;;;;3.85;3.15;;;;;;;28.56;28.21;100274.22;5372712;32;35474;-68
2022/06/06 15:31:26;;;;;;;;;;;;;;;29.13;27.32;100271.13;5382988;32;44421;-72
2022/06/06 15:34:34;;;;;;;7.75;3.75;;;;;;;29.72;26.48;100270.38;5401946;32;34229;-70
2022/06/06 15:37:44;;;;;;;6.53;3.45;;;;;;;30.03;26.34;100267.44;5381463;32;35401;-68
2022/06/06 15:41:12;;;;;;;4.70;3.40;;;;;;;29.42;27.00;100266.75;5370768;32;34532;-68